Airports United Kingdom Edinburgh Airport

Edinburgh Airport (EGPH / EDI)

Facts about Edinburgh Airport

Name Edinburgh Airport
City Edinburgh
Country United Kingdom
ICAO code EGPH
IATA code EDI
Elevation 41.1480 meters (135 feet)

Weather

METAR

Metar data retrieved Saturday, 20 July 2024 at 00:55 UTC (15 minutes ago)

EGPH 200020Z 21005KT 9999 SCT023 18/14 Q1008

Live traffic

Navigraph Charts (account required)